Charles City, IA

9:35 AM CDT on June 30, 2015 (GMT -0500)
KIAOSAGE1 | | Change Station
CLOSE
Current Station
Personal Weather Station
Location: Osage, IA
Elevation: 1173 ft
Nearby Weather Stations

Elev 1173 ft 43.28 °N, 92.82 °W | Updated 17 seconds ago

Clear
Clear
67.1 °F
Feels Like 67.1 °F
N
0.0
Wind Variable Wind from NNW
Gusts 0.0 mph

Today
High -- | Low -- °F
--% Chance of Precip.
Yesterday
High -- | Low -- °F
Precip. -- in
5:34 AM 8:54 PM
Waxing Gibbous, 97% visible
Pressure 29.91 in
Visibility 2.0 miles
Clouds Scattered Clouds 200 ft
Dew Point 61 °F
Humidity 81%
Rainfall in
Snow Depth Not available.
UV 1 out of 12
Pollen 4.30 out of 12
Air Quality Not available.
Flu Activity No Activity
SPECI KMCW 301202Z AUTO 32007KT 2SM BR SCT002 18/17 A2991 RMK AO2 T01780172

More Conditions Fewer Conditions

Pressure 29.91 in
Visibility 2.0 miles
Clouds Scattered Clouds 200 ft
Dew Point 61 °F
Humidity 81%
Rainfall in
Snow Depth Not available.
UV 1 out of 12
Pollen 4.30 out of 12
Air Quality Not available.
Flu Activity No Activity
SPECI KMCW 301202Z AUTO 32007KT 2SM BR SCT002 18/17 A2991 RMK AO2 T01780172

More Conditions Fewer Conditions

10-Day Weather Forecast

×

Almanac

Astronomy

Jun. 30, 2015 Rise Set
Actual Time
Civil Twilight
Nautical Twilight
Astronomical Twilight
Moon
Length of Visible Light
Length of Day
Tomorrow will be .
, % of the Moon is Illuminated

Today's Extremes

State Highs State Lows

Community

WunderPhotos

Upload Photos

1,834,008 photos uploaded!

WunderBlogs® & News

Nearby

Air Quality

  Air Quality AQ Index Pollutant
Not available.

Snow Depth

Station Depth Elevation

Earthquake Activity

City Distance Mag. Time & Date
Minimum magnitude displayed is 2.5.

Coastal Water Temperatures

Place Temperature

Stations

Nearby Weather Stations

Station Location Temp. Windchill Dew Point Humidity Wind Precip. Elev Updated Type